Time;durP1;ratioP1;P1;durP2;ratioP2;P2;SDS_P1;SDS_P2;PMS_P1;PMS_P2;Temp;Humidity;BMP_temperature;BMP_pressure;BME280_temperature;BME280_humidity;BME280_pressure;Samples;Min_cycle;Max_cycle;Signal;HPM_P1;HPM_P2
2022/04/04 00:01:09;;;;;;;40.38;36.28;;;25.60;99.90;;;;;;5054423;28;20464;-66
2022/04/04 00:03:35;;;;;;;44.28;33.92;;;25.50;99.90;;;;;;5051784;28;20021;-66
2022/04/04 00:06:02;;;;;;;32.28;28.80;;;25.60;99.90;;;;;;5054883;28;20074;-66
2022/04/04 00:08:30;;;;;;;38.95;30.02;;;25.70;99.90;;;;;;5054721;28;20021;-66
2022/04/04 00:10:57;;;;;;;35.90;30.08;;;25.70;99.90;;;;;;5054574;28;20024;-65
2022/04/04 00:13:23;;;;;;;35.10;27.10;;;25.90;99.90;;;;;;5053546;28;20025;-66
2022/04/04 00:15:50;;;;;;;24.08;20.30;;;25.90;99.90;;;;;;5054695;28;20471;-65
2022/04/04 00:18:17;;;;;;;33.13;22.70;;;25.90;99.90;;;;;;5054785;28;20043;-65
2022/04/04 00:20:44;;;;;;;29.48;22.65;;;26.00;99.90;;;;;;5054801;28;20103;-66
2022/04/04 00:23:13;;;;;;;23.30;19.80;;;26.00;99.90;;;;;;5054647;28;20479;-67
2022/04/04 00:25:41;;;;;;;22.88;19.02;;;26.00;99.90;;;;;;5054326;28;20029;-66
2022/04/04 00:28:09;;;;;;;25.13;22.00;;;26.00;99.90;;;;;;5054516;28;20021;-65
2022/04/04 00:30:36;;;;;;;29.90;21.77;;;26.10;99.90;;;;;;5053677;28;20063;-67
2022/04/04 00:33:04;;;;;;;29.95;21.60;;;26.10;99.90;;;;;;5043598;28;20033;-65
2022/04/04 00:35:31;;;;;;;29.90;22.25;;;26.10;99.90;;;;;;5036436;28;20029;-65
2022/04/04 00:38:00;;;;;;;29.35;22.50;;;26.10;99.90;;;;;;5053026;28;20067;-66
2022/04/04 00:40:27;;;;;;;29.75;19.55;;;26.10;99.90;;;;;;5054230;28;20036;-65
2022/04/04 00:42:54;;;;;;;34.03;19.45;;;26.20;99.90;;;;;;5054042;28;20444;-65
2022/04/04 00:45:21;;;;;;;34.00;19.77;;;26.20;99.90;;;;;;5054060;28;20025;-66
2022/04/04 00:47:47;;;;;;;27.75;20.25;;;26.30;99.90;;;;;;5054095;28;20029;-65
2022/04/04 00:50:14;;;;;;;41.88;20.17;;;26.30;99.90;;;;;;5053703;28;20075;-68
2022/04/04 00:52:41;;;;;;;47.22;22.98;;;26.40;99.90;;;;;;5053807;28;20020;-66
2022/04/04 00:55:08;;;;;;;33.17;21.70;;;26.50;99.90;;;;;;5053884;28;20033;-65
2022/04/04 00:57:37;;;;;;;30.65;21.15;;;26.50;99.90;;;;;;5053605;28;20563;-65
2022/04/04 01:00:11;;;;;;;30.50;21.60;;;26.60;99.90;;;;;;5053496;28;20029;-65
2022/04/04 01:02:39;;;;;;;28.80;22.55;;;26.60;99.90;;;;;;5052441;28;20032;-66
2022/04/04 01:05:07;;;;;;;27.75;22.67;;;26.70;99.90;;;;;;5053811;28;20028;-64
2022/04/04 01:07:38;;;;;;;28.70;21.60;;;26.70;99.90;;;;;;5053640;28;20167;-66
2022/04/04 01:10:06;;;;;;;26.45;20.88;;;26.80;99.90;;;;;;5053823;28;20025;-65
2022/04/04 01:12:34;;;;;;;40.80;24.10;;;26.80;99.90;;;;;;5053447;28;20025;-64
2022/04/04 01:15:01;;;;;;;35.30;23.25;;;26.80;99.90;;;;;;5054211;28;20025;-67
2022/04/04 01:17:28;;;;;;;26.08;21.40;;;26.80;99.90;;;;;;5052968;28;20439;-66
2022/04/04 01:19:56;;;;;;;35.10;23.95;;;26.80;99.90;;;;;;5053310;28;20093;-66
2022/04/04 01:22:24;;;;;;;34.70;24.13;;;26.80;99.90;;;;;;5053564;28;20438;-66
2022/04/04 01:24:51;;;;;;;31.27;23.42;;;26.80;99.90;;;;;;5052838;28;20013;-66
2022/04/04 01:27:18;;;;;;;29.45;22.02;;;26.90;99.90;;;;;;5052593;28;20029;-65
2022/04/04 01:29:47;;;;;;;26.02;22.48;;;26.90;99.90;;;;;;5052973;28;20544;-66
2022/04/04 01:32:14;;;;;;;34.05;23.58;;;27.00;99.90;;;;;;5053093;28;20025;-66
2022/04/04 01:34:41;;;;;;;29.58;23.80;;;27.20;99.90;;;;;;5053260;28;20045;-65
2022/04/04 01:37:08;;;;;;;37.80;26.27;;;27.20;99.90;;;;;;5052661;28;20040;-64
2022/04/04 01:39:35;;;;;;;41.75;28.55;;;27.30;99.90;;;;;;5052899;28;20024;-66
2022/04/04 01:42:01;;;;;;;37.00;27.77;;;27.50;99.90;;;;;;5053377;28;20028;-65
2022/04/04 01:44:28;;;;;;;39.75;29.75;;;27.60;99.90;;;;;;5052877;28;20036;-65
2022/04/04 01:46:55;;;;;;;36.10;27.58;;;27.60;99.90;;;;;;5052575;28;20035;-65
2022/04/04 01:49:22;;;;;;;40.65;29.75;;;27.70;99.90;;;;;;5052685;28;20114;-66
2022/04/04 01:51:48;;;;;;;39.13;27.70;;;27.70;99.90;;;;;;5052745;28;20033;-66
2022/04/04 01:54:15;;;;;;;50.83;31.63;;;27.70;99.90;;;;;;5052762;28;20029;-67
2022/04/04 01:56:43;;;;;;;53.40;35.03;;;27.80;99.90;;;;;;5052364;28;20025;-65
2022/04/04 01:59:10;;;;;;;49.92;37.90;;;27.80;99.90;;;;;;5052658;28;20044;-66
2022/04/04 02:01:37;;;;;;;51.88;37.83;;;27.90;99.90;;;;;;5052096;28;20116;-65
2022/04/04 02:04:04;;;;;;;65.32;43.65;;;28.00;99.90;;;;;;5052535;28;20021;-67
2022/04/04 02:06:30;;;;;;;63.90;47.33;;;28.10;99.90;;;;;;5052365;28;20041;-65
2022/04/04 02:08:57;;;;;;;66.20;49.13;;;28.20;99.90;;;;;;5052823;28;20021;-65
2022/04/04 02:11:24;;;;;;;54.35;42.90;;;28.30;99.90;;;;;;5053127;28;20052;-65
2022/04/04 02:13:51;;;;;;;70.95;51.42;;;28.30;99.90;;;;;;5052676;28;20086;-66
2022/04/04 02:16:18;;;;;;;69.05;49.83;;;28.30;99.90;;;;;;5052412;28;20025;-67
2022/04/04 02:18:45;;;;;;;72.55;51.25;;;28.40;99.90;;;;;;5052265;28;20021;-64
2022/04/04 02:21:12;;;;;;;68.10;50.92;;;28.50;99.90;;;;;;5052786;28;20017;-66
2022/04/04 02:23:39;;;;;;;63.40;50.05;;;28.60;99.90;;;;;;5052631;28;20021;-67
2022/04/04 02:26:05;;;;;;;64.50;47.80;;;28.60;99.90;;;;;;5052577;28;20025;-68
2022/04/04 02:28:32;;;;;;;68.07;53.83;;;28.70;99.90;;;;;;5050498;28;20511;-67
2022/04/04 02:30:59;;;;;;;68.22;51.03;;;28.80;99.90;;;;;;5052096;28;20052;-66
2022/04/04 02:33:29;;;;;;;75.38;55.60;;;28.80;99.90;;;;;;5049694;28;20456;-66
2022/04/04 02:35:56;;;;;;;72.38;54.80;;;28.90;99.90;;;;;;5053769;28;20391;-66
2022/04/04 02:38:26;;;;;;;69.05;52.47;;;28.90;99.90;;;;;;5058232;28;20021;-66
2022/04/04 02:40:54;;;;;;;60.00;49.38;;;28.80;99.90;;;;;;5055416;28;20151;-65
2022/04/04 02:43:21;;;;;;;59.55;47.60;;;28.80;99.90;;;;;;5056029;28;20047;-66
2022/04/04 02:45:48;;;;;;;66.97;54.20;;;28.80;99.90;;;;;;5053438;28;20025;-65
2022/04/04 02:48:15;;;;;;;71.18;56.78;;;28.80;99.90;;;;;;5058165;28;20036;-65
2022/04/04 02:50:45;;;;;;;69.35;57.17;;;28.90;99.90;;;;;;5055352;28;20047;-65
2022/04/04 02:53:12;;;;;;;72.50;60.13;;;28.90;99.90;;;;;;5055551;28;20040;-66
2022/04/04 02:58:26;;;;;;;76.80;63.72;;;28.90;99.90;;;;;;5052472;28;20059;-66
2022/04/04 03:00:53;;;;;;;93.68;74.05;;;28.90;99.90;;;;;;5054957;28;20090;-66
2022/04/04 03:03:20;;;;;;;99.32;78.75;;;28.90;99.90;;;;;;5055079;28;20028;-65
2022/04/04 03:05:47;;;;;;;88.05;72.72;;;28.90;99.90;;;;;;5055311;28;20475;-64
2022/04/04 03:08:14;;;;;;;84.75;70.68;;;28.90;99.90;;;;;;5054680;28;20471;-67
2022/04/04 03:10:40;;;;;;;86.10;72.72;;;28.90;99.90;;;;;;5054609;28;20025;-67
2022/04/04 03:13:07;;;;;;;92.70;75.70;;;29.00;99.90;;;;;;5054986;28;20434;-67
2022/04/04 03:15:36;;;;;;;86.10;71.32;;;29.00;99.90;;;;;;5055469;28;20032;-68
2022/04/04 03:18:04;;;;;;;99.43;81.07;;;29.00;99.90;;;;;;5053761;28;20109;-65
2022/04/04 03:20:32;;;;;;;98.43;82.50;;;29.10;99.90;;;;;;5055203;28;20025;-66
2022/04/04 03:23:00;;;;;;;92.35;74.28;;;29.40;99.90;;;;;;5053826;28;20025;-68
2022/04/04 03:25:27;;;;;;;100.88;78.65;;;29.50;99.90;;;;;;5052770;28;20017;-66
2022/04/04 03:27:55;;;;;;;135.38;99.47;;;29.60;99.90;;;;;;5051187;28;20100;-67
2022/04/04 03:30:26;;;;;;;132.27;95.32;;;29.60;99.90;;;;;;5055027;28;20115;-66
2022/04/04 03:32:55;;;;;;;148.03;107.17;;;29.70;99.90;;;;;;5056234;28;20021;-67
2022/04/04 03:35:22;;;;;;;132.98;95.63;;;29.80;99.90;;;;;;5057010;28;20441;-64
2022/04/04 03:37:51;;;;;;;119.75;86.53;;;30.00;99.90;;;;;;5057821;28;20472;-67
2022/04/04 03:40:23;;;;;;;117.80;84.13;;;29.90;99.90;;;;;;5063143;28;20048;-66
2022/04/04 03:42:52;;;;;;;133.68;93.80;;;29.90;99.90;;;;;;5065103;28;20048;-68
2022/04/04 03:45:19;;;;;;;115.60;84.88;;;29.90;99.90;;;;;;5057990;28;20028;-66
2022/04/04 03:47:50;;;;;;;86.45;69.82;;;29.90;99.90;;;;;;5065692;28;20112;-66
2022/04/04 03:50:17;;;;;;;92.13;69.97;;;29.90;99.90;;;;;;5061911;28;20076;-67
2022/04/04 03:52:47;;;;;;;105.93;80.22;;;29.80;99.90;;;;;;5061435;28;20170;-66
2022/04/04 03:55:16;;;;;;;102.65;76.93;;;29.80;99.90;;;;;;5055367;28;20032;-67
2022/04/04 03:57:44;;;;;;;111.07;80.43;;;29.80;99.90;;;;;;5055658;28;20399;-66
2022/04/04 04:00:12;;;;;;;101.95;75.63;;;29.90;99.90;;;;;;5055304;28;20025;-65
2022/04/04 04:02:39;;;;;;;110.28;82.70;;;29.90;99.90;;;;;;5051863;28;20264;-65
2022/04/04 04:05:09;;;;;;;110.70;82.55;;;30.00;99.90;;;;;;5055473;28;20056;-66
2022/04/04 04:07:36;;;;;;;116.40;84.85;;;30.00;99.90;;;;;;5054411;28;20332;-66
2022/04/04 04:10:04;;;;;;;106.30;81.00;;;30.00;99.90;;;;;;5054368;28;20059;-64
2022/04/04 04:12:31;;;;;;;108.50;79.43;;;30.00;99.90;;;;;;5054032;28;20476;-66
2022/04/04 04:14:58;;;;;;;108.18;81.68;;;30.10;99.90;;;;;;5053526;28;20497;-65
2022/04/04 04:17:25;;;;;;;107.53;78.40;;;30.20;99.90;;;;;;5053824;28;20483;-65
2022/04/04 04:22:41;;;;;;;108.68;80.28;;;30.10;99.90;;;;;;5052110;28;20028;-66
2022/04/04 04:25:08;;;;;;;106.18;81.63;;;30.10;99.90;;;;;;5054279;28;20025;-65
2022/04/04 04:27:35;;;;;;;107.10;82.10;;;30.20;99.90;;;;;;5052449;28;20391;-66
2022/04/04 04:30:04;;;;;;;118.25;85.10;;;30.30;99.90;;;;;;5053916;28;20163;-66
2022/04/04 04:32:30;;;;;;;105.20;78.55;;;30.40;99.90;;;;;;5053891;28;20036;-64
2022/04/04 04:34:57;;;;;;;96.10;74.82;;;30.60;99.90;;;;;;5051231;28;20025;-65
2022/04/04 04:37:24;;;;;;;93.10;73.35;;;30.70;99.90;;;;;;5053717;28;20032;-65
2022/04/04 04:39:51;;;;;;;79.90;62.35;;;30.70;99.90;;;;;;5053564;28;20017;-65
2022/04/04 04:42:18;;;;;;;72.13;55.92;;;30.90;99.90;;;;;;5050592;28;20036;-66
2022/04/04 04:44:46;;;;;;;90.57;62.83;;;31.10;99.90;;;;;;5053645;28;20052;-68
2022/04/04 04:47:15;;;;;;;82.63;62.97;;;31.10;99.90;;;;;;5053962;28;20037;-71
2022/04/04 04:49:41;;;;;;;98.55;78.72;;;31.10;99.90;;;;;;5053187;28;20029;-66
2022/04/04 04:52:08;;;;;;;98.45;78.95;;;31.00;99.90;;;;;;5054318;28;20013;-67
2022/04/04 04:54:35;;;;;;;104.30;78.50;;;30.90;99.90;;;;;;5052297;28;20033;-66
2022/04/04 04:57:02;;;;;;;100.65;76.45;;;30.80;99.90;;;;;;5039707;28;20017;-67
2022/04/04 04:59:29;;;;;;;80.90;64.80;;;30.90;99.90;;;;;;5052215;28;20048;-67
2022/04/04 05:01:55;;;;;;;64.07;45.33;;;30.80;99.90;;;;;;5053303;28;20039;-69
2022/04/04 05:04:22;;;;;;;49.70;38.13;;;30.80;99.90;;;;;;5053489;28;20025;-68
2022/04/04 05:06:49;;;;;;;42.95;33.40;;;30.80;99.90;;;;;;5054042;28;20440;-67
2022/04/04 05:09:18;;;;;;;48.25;38.08;;;30.90;99.90;;;;;;5053099;28;20057;-64
2022/04/04 05:11:45;;;;;;;56.30;41.25;;;30.90;99.90;;;;;;5053159;28;20426;-65
2022/04/04 05:14:15;;;;;;;48.70;37.58;;;30.90;99.90;;;;;;5053861;28;20024;-65
2022/04/04 05:16:43;;;;;;;52.58;36.78;;;31.00;99.90;;;;;;5052627;28;20116;-66
2022/04/04 05:19:12;;;;;;;41.13;29.80;;;31.10;99.90;;;;;;5053376;28;20082;-65
2022/04/04 05:21:39;;;;;;;41.80;30.13;;;31.10;99.90;;;;;;5053301;28;20447;-65
2022/04/04 05:24:07;;;;;;;40.20;27.60;;;31.20;99.90;;;;;;5067320;28;20036;-70
2022/04/04 05:26:34;;;;;;;35.22;27.55;;;31.20;99.90;;;;;;5072559;28;20036;-71
2022/04/04 05:29:01;;;;;;;45.53;32.38;;;31.30;99.90;;;;;;5053604;28;20379;-68
2022/04/04 05:31:30;;;;;;;49.75;40.00;;;31.30;99.90;;;;;;5047507;28;20078;-69
2022/04/04 05:33:59;;;;;;;49.42;39.17;;;31.40;99.90;;;;;;5047033;28;20068;-68
2022/04/04 05:36:27;;;;;;;48.95;35.83;;;31.40;99.90;;;;;;5043825;28;20110;-69
2022/04/04 05:38:54;;;;;;;23.58;18.92;;;31.50;99.90;;;;;;5053215;28;20025;-68
2022/04/04 05:41:21;;;;;;;25.08;18.13;;;31.60;99.90;;;;;;5053347;28;20020;-67
2022/04/04 05:43:48;;;;;;;30.65;24.00;;;31.70;99.90;;;;;;5053585;28;20159;-67
2022/04/04 05:46:16;;;;;;;33.67;25.25;;;31.70;99.90;;;;;;5050069;28;20484;-69
2022/04/04 05:48:43;;;;;;;29.85;24.45;;;31.80;99.90;;;;;;5052821;28;20095;-68
2022/04/04 05:51:16;;;;;;;31.50;22.85;;;31.90;99.90;;;;;;5052750;28;20495;-69
2022/04/04 05:53:44;;;;;;;33.83;26.33;;;31.90;99.90;;;;;;5044535;28;20033;-68
2022/04/04 05:56:11;;;;;;;36.38;29.00;;;32.00;99.90;;;;;;5035550;28;20472;-68
2022/04/04 05:58:38;;;;;;;41.53;31.45;;;32.00;99.90;;;;;;5052547;28;20282;-68
2022/04/04 06:01:04;;;;;;;40.97;32.75;;;32.00;99.90;;;;;;5053121;28;20041;-68
2022/04/04 06:03:31;;;;;;;46.90;35.95;;;32.00;99.90;;;;;;5052487;28;20112;-68
2022/04/04 06:05:58;;;;;;;27.85;23.83;;;32.00;99.90;;;;;;5052426;28;20013;-68
2022/04/04 06:08:24;;;;;;;24.58;21.98;;;31.80;99.90;;;;;;5043973;28;20032;-70
2022/04/04 06:10:51;;;;;;;32.65;21.38;;;31.40;99.90;;;;;;5054867;28;20108;-70
2022/04/04 06:13:19;;;;;;;28.15;21.73;;;31.30;99.90;;;;;;5054860;28;20032;-72
2022/04/04 06:15:47;;;;;;;28.50;21.80;;;31.30;99.90;;;;;;5057149;28;20025;-71
2022/04/04 06:18:15;;;;;;;23.17;20.73;;;31.30;99.90;;;;;;5056913;28;20395;-70
2022/04/04 06:20:42;;;;;;;27.83;23.48;;;31.30;99.90;;;;;;5056259;28;20017;-71
2022/04/04 06:23:11;;;;;;;41.63;32.08;;;31.30;99.90;;;;;;5052185;28;20126;-70
2022/04/04 06:25:38;;;;;;;31.15;26.65;;;31.20;99.90;;;;;;5056983;28;20024;-71
2022/04/04 06:28:06;;;;;;;31.70;24.92;;;31.10;99.90;;;;;;5057646;28;20021;-71
2022/04/04 06:30:34;;;;;;;31.63;24.70;;;31.10;99.90;;;;;;5057357;28;20108;-71
2022/04/04 06:33:03;;;;;;;35.05;30.08;;;31.10;99.90;;;;;;5056052;28;20505;-68
2022/04/04 06:35:30;;;;;;;29.88;25.73;;;31.10;99.90;;;;;;5055881;28;20040;-69
2022/04/04 06:37:57;;;;;;;31.95;27.10;;;31.00;99.90;;;;;;5056039;28;20017;-69
2022/04/04 06:40:23;;;;;;;35.38;29.25;;;31.00;99.90;;;;;;5056292;28;20017;-68
2022/04/04 06:42:51;;;;;;;48.20;37.80;;;30.90;99.90;;;;;;5054968;28;20068;-65
2022/04/04 06:45:17;;;;;;;51.20;40.70;;;30.70;99.90;;;;;;5056293;28;20075;-66
2022/04/04 06:47:45;;;;;;;52.00;41.10;;;30.60;99.90;;;;;;5056723;28;20107;-67
2022/04/04 06:50:13;;;;;;;59.63;48.92;;;30.50;99.90;;;;;;5055423;28;20024;-67
2022/04/04 06:52:43;;;;;;;54.58;43.72;;;30.40;99.90;;;;;;5055190;28;20025;-67
2022/04/04 06:55:11;;;;;;;43.55;36.78;;;30.20;99.90;;;;;;5054002;28;20029;-69
2022/04/04 06:57:38;;;;;;;45.20;40.05;;;30.00;99.90;;;;;;5055823;28;20045;-69
2022/04/04 07:00:08;;;;;;;51.72;41.67;;;30.00;99.90;;;;;;5056027;28;20074;-67
2022/04/04 07:02:37;;;;;;;57.55;49.00;;;29.90;99.90;;;;;;5052380;28;20103;-67
2022/04/04 07:05:05;;;;;;;54.65;48.78;;;29.80;99.90;;;;;;5053040;28;20041;-68
2022/04/04 07:07:33;;;;;;;47.92;38.40;;;29.70;99.90;;;;;;5053146;28;20237;-67
2022/04/04 07:10:00;;;;;;;41.30;36.03;;;29.50;99.90;;;;;;5053576;28;20028;-67
2022/04/04 07:12:29;;;;;;;44.33;38.35;;;29.30;99.90;;;;;;5054953;28;20029;-65
2022/04/04 07:14:56;;;;;;;42.72;36.83;;;29.40;99.90;;;;;;5055448;28;20036;-68
2022/04/04 07:17:22;;;;;;;37.95;33.80;;;29.50;99.90;;;;;;5055904;28;20032;-68
2022/04/04 07:19:49;;;;;;;35.95;31.83;;;29.50;99.90;;;;;;5054229;28;20116;-68
2022/04/04 07:22:16;;;;;;;36.75;29.92;;;29.50;99.90;;;;;;5053933;28;20037;-67
2022/04/04 07:24:43;;;;;;;34.35;29.27;;;29.50;99.90;;;;;;5050733;28;20029;-67
2022/04/04 07:27:10;;;;;;;36.17;29.92;;;29.50;99.90;;;;;;5053798;28;20029;-67
2022/04/04 07:29:37;;;;;;;35.08;31.42;;;29.60;99.90;;;;;;5052355;28;20112;-68
2022/04/04 07:32:05;;;;;;;35.55;29.55;;;29.60;99.90;;;;;;5053280;28;20090;-67
2022/04/04 07:34:31;;;;;;;31.38;27.95;;;29.60;99.90;;;;;;5054179;28;20025;-68
2022/04/04 07:36:58;;;;;;;31.45;28.13;;;29.70;99.90;;;;;;5050706;28;20021;-69
2022/04/04 07:39:28;;;;;;;34.30;29.35;;;29.80;99.90;;;;;;5055027;28;20545;-69
2022/04/04 07:41:55;;;;;;;35.75;28.90;;;29.90;99.90;;;;;;5052399;28;20223;-69
2022/04/04 07:44:21;;;;;;;30.58;25.58;;;29.90;99.90;;;;;;5053008;28;20021;-70
2022/04/04 07:46:48;;;;;;;31.98;27.52;;;29.90;99.90;;;;;;5054595;28;20418;-69
2022/04/04 07:49:15;;;;;;;32.65;29.15;;;29.90;99.90;;;;;;5054027;28;20021;-69
2022/04/04 07:51:42;;;;;;;32.35;28.95;;;30.00;99.90;;;;;;5053485;28;20025;-68
2022/04/04 07:54:08;;;;;;;32.47;28.55;;;29.90;99.90;;;;;;5052392;28;20418;-67
2022/04/04 07:56:35;;;;;;;31.75;28.30;;;30.00;99.90;;;;;;5052878;28;20294;-69
2022/04/04 07:59:02;;;;;;;32.20;26.95;;;30.10;99.90;;;;;;5053871;28;20037;-67
2022/04/04 08:01:31;;;;;;;32.03;28.55;;;30.20;99.90;;;;;;5054266;28;20040;-67
2022/04/04 08:03:57;;;;;;;30.58;25.88;;;30.30;99.90;;;;;;5054022;28;20032;-69
2022/04/04 08:06:24;;;;;;;30.73;27.42;;;30.30;99.90;;;;;;5053979;28;20067;-67
2022/04/04 08:08:51;;;;;;;32.22;27.30;;;30.40;99.90;;;;;;5053724;28;20013;-68
2022/04/04 08:11:18;;;;;;;34.95;28.75;;;30.40;99.90;;;;;;5053929;28;20494;-68
2022/04/04 08:13:47;;;;;;;36.55;27.75;;;30.40;99.90;;;;;;5048160;28;20025;-71
2022/04/04 08:16:14;;;;;;;31.40;28.10;;;30.50;99.90;;;;;;5043161;28;20476;-67
2022/04/04 08:18:40;;;;;;;31.50;27.50;;;30.50;99.90;;;;;;5041492;28;20476;-68
2022/04/04 08:21:07;;;;;;;32.65;29.00;;;30.50;99.90;;;;;;5054553;28;20067;-68
2022/04/04 08:23:34;;;;;;;32.85;27.88;;;30.50;99.90;;;;;;5054302;28;20052;-68
2022/04/04 08:26:01;;;;;;;32.50;28.75;;;30.60;99.90;;;;;;5054276;28;20048;-68
2022/04/04 08:28:29;;;;;;;33.05;28.77;;;30.60;99.90;;;;;;5054230;28;20040;-71
2022/04/04 08:30:55;;;;;;;34.08;26.33;;;30.60;99.90;;;;;;5054828;28;20035;-70
2022/04/04 08:33:24;;;;;;;31.33;26.92;;;30.60;99.90;;;;;;5052728;28;20021;-69
2022/04/04 08:35:54;;;;;;;28.17;25.27;;;30.70;99.90;;;;;;5053162;28;20044;-67
2022/04/04 08:38:22;;;;;;;44.35;34.65;;;30.70;99.90;;;;;;5052425;28;20028;-67
2022/04/04 08:40:51;;;;;;;61.67;49.72;;;30.80;99.90;;;;;;5052394;28;20021;-67
2022/04/04 08:43:18;;;;;;;66.32;49.55;;;30.80;99.90;;;;;;5053780;28;20108;-68
2022/04/04 08:45:49;;;;;;;46.20;35.85;;;30.80;99.90;;;;;;5048081;28;20024;-69
2022/04/04 08:48:16;;;;;;;34.67;29.05;;;30.90;99.90;;;;;;5044684;28;20287;-67
2022/04/04 08:50:46;;;;;;;32.22;26.65;;;30.90;99.90;;;;;;5054805;28;20109;-68
2022/04/04 08:53:14;;;;;;;34.17;27.35;;;30.90;99.90;;;;;;5055021;28;20052;-70
2022/04/04 08:55:41;;;;;;;39.78;29.15;;;30.90;99.90;;;;;;5054535;28;20017;-68
2022/04/04 08:58:10;;;;;;;37.40;29.50;;;30.90;99.90;;;;;;5053616;28;20114;-67
2022/04/04 09:00:38;;;;;;;58.65;45.28;;;30.90;99.90;;;;;;5053731;28;20025;-66
2022/04/04 09:03:06;;;;;;;50.17;38.70;;;31.00;99.90;;;;;;5053889;28;20382;-67
2022/04/04 09:05:34;;;;;;;36.30;26.98;;;30.90;99.90;;;;;;5052477;28;20021;-67
2022/04/04 09:08:05;;;;;;;60.80;45.22;;;30.90;99.90;;;;;;5053736;28;20052;-68
2022/04/04 09:10:35;;;;;;;69.55;51.08;;;31.00;99.90;;;;;;5051315;28;20094;-70
2022/04/04 09:13:15;;;;;;;418.60;299.23;;;31.00;99.90;;;;;;5051161;28;20029;-67
2022/04/04 09:15:54;;;;;;;320.38;219.70;;;31.00;99.90;;;;;;5051169;28;20097;-67
2022/04/04 09:18:41;;;;;;;554.22;401.88;;;31.00;99.90;;;;;;5050537;28;20041;-67
2022/04/04 09:21:11;;;;;;;186.13;121.93;;;31.00;99.90;;;;;;5051118;28;20029;-67
2022/04/04 09:23:58;;;;;;;121.63;78.70;;;31.00;99.90;;;;;;5053214;28;20099;-67
2022/04/04 09:26:39;;;;;;;443.13;321.25;;;31.00;99.90;;;;;;5049850;28;20106;-67
2022/04/04 09:29:16;;;;;;;354.70;220.02;;;31.00;99.90;;;;;;5050428;28;20027;-68
2022/04/04 09:32:14;;;;;;;498.17;312.25;;;31.00;99.90;;;;;;5052238;28;20013;-67
2022/04/04 09:35:04;;;;;;;492.80;305.48;;;31.00;99.90;;;;;;5051605;28;20071;-68
2022/04/04 09:37:33;;;;;;;762.13;471.13;;;30.90;99.90;;;;;;5052445;28;20471;-68
2022/04/04 09:40:16;;;;;;;386.10;215.85;;;30.90;99.90;;;;;;5050227;28;20387;-66
2022/04/04 09:42:56;;;;;;;616.85;350.20;;;30.90;99.90;;;;;;5052602;28;20493;-66
2022/04/04 09:45:28;;;;;;;609.78;349.23;;;30.90;99.90;;;;;;5051151;28;20075;-65
2022/04/04 09:47:56;;;;;;;343.15;191.68;;;30.90;99.90;;;;;;5047772;28;20041;-66
2022/04/04 09:50:46;;;;;;;134.05;89.72;;;30.80;99.90;;;;;;5037759;28;20095;-66
2022/04/04 09:53:24;;;;;;;84.03;60.60;;;30.80;99.90;;;;;;5043526;28;20111;-66
2022/04/04 09:56:02;;;;;;;257.02;143.48;;;30.70;99.90;;;;;;5033513;28;20053;-67
2022/04/04 09:58:31;;;;;;;130.88;89.65;;;30.70;99.90;;;;;;5033247;28;20076;-68
2022/04/04 10:01:00;;;;;;;147.68;95.55;;;30.70;99.90;;;;;;5044081;28;20467;-69
2022/04/04 10:03:30;;;;;;;395.65;216.02;;;30.70;99.90;;;;;;5053531;28;20048;-65
2022/04/04 10:06:06;;;;;;;1321.85;733.58;;;30.60;99.90;;;;;;5054849;28;20394;-67
2022/04/04 10:08:35;;;;;;;726.85;419.38;;;30.60;99.90;;;;;;5051475;28;20475;-66
2022/04/04 10:11:03;;;;;;;846.78;469.60;;;30.60;99.90;;;;;;5051372;28;20025;-66
2022/04/04 10:13:30;;;;;;;141.80;81.82;;;30.50;99.90;;;;;;5048681;28;20025;-66
2022/04/04 10:16:00;;;;;;;211.93;119.72;;;30.50;99.90;;;;;;5048650;28;20024;-66
2022/04/04 10:18:27;;;;;;;957.92;571.00;;;30.50;99.90;;;;;;5041346;28;20037;-64
2022/04/04 10:20:54;;;;;;;963.22;583.67;;;30.40;99.90;;;;;;5050180;28;20021;-65
2022/04/04 10:23:23;;;;;;;790.97;521.72;;;30.40;99.90;;;;;;5052362;28;20032;-65
2022/04/04 10:25:51;;;;;;;298.80;178.07;;;30.50;99.90;;;;;;5052772;28;20047;-65
2022/04/04 10:28:38;;;;;;;651.58;400.02;;;30.50;99.90;;;;;;5052725;28;20384;-64
2022/04/04 10:31:16;;;;;;;272.38;155.02;;;30.50;99.90;;;;;;5041993;28;20472;-66
2022/04/04 10:33:44;;;;;;;701.67;461.85;;;30.40;99.90;;;;;;5052819;28;20025;-67
2022/04/04 10:36:20;;;;;;;1271.60;744.83;;;30.50;99.90;;;;;;5053145;28;20086;-67
2022/04/04 10:38:48;;;;;;;1257.22;738.53;;;30.40;99.90;;;;;;5038799;28;20039;-65
2022/04/04 10:41:19;;;;;;;991.13;652.63;;;30.40;99.90;;;;;;5044261;28;20025;-65
2022/04/04 10:43:48;;;;;;;1624.25;892.17;;;30.40;99.90;;;;;;5052196;28;20087;-65
2022/04/04 10:46:17;;;;;;;1492.88;841.47;;;30.40;99.90;;;;;;5052368;28;20035;-65
2022/04/04 10:48:49;;;;;;;913.40;611.78;;;30.40;99.90;;;;;;5052924;28;20031;-63
2022/04/04 10:51:17;;;;;;;;;;;30.40;99.90;;;;;;5052483;28;20114;-64
2022/04/04 10:53:47;;;;;;;937.95;623.17;;;30.30;99.90;;;;;;5048895;28;19985;-63
2022/04/04 10:56:25;;;;;;;985.42;627.67;;;30.30;99.90;;;;;;5051789;28;20060;-66
2022/04/04 10:58:54;;;;;;;1281.97;721.25;;;30.20;99.90;;;;;;5056000;28;20056;-67
2022/04/04 11:01:24;;;;;;;768.72;462.48;;;30.20;99.90;;;;;;5056328;28;20029;-66
2022/04/04 11:03:52;;;;;;;1127.07;672.85;;;30.20;99.90;;;;;;5052817;28;20047;-66
2022/04/04 11:09:16;;;;;;;586.75;344.13;;;30.10;99.90;;;;;;5055845;28;20029;-65
2022/04/04 11:11:44;;;;;;;1186.78;673.72;;;30.10;99.90;;;;;;5047674;28;20025;-65
2022/04/04 11:14:12;;;;;;;457.73;269.15;;;30.10;99.90;;;;;;5055884;28;20028;-63
2022/04/04 11:17:07;;;;;;;304.65;168.75;;;30.10;99.90;;;;;;5056161;28;20402;-67
2022/04/04 11:19:45;;;;;;;241.93;138.43;;;30.10;99.90;;;;;;5055919;28;20108;-64
2022/04/04 11:22:18;;;;;;;499.65;333.33;;;30.10;99.90;;;;;;5054554;28;20458;-65
2022/04/04 11:24:51;;;;;;;411.90;279.40;;;30.20;99.90;;;;;;5054302;28;20029;-62
2022/04/04 11:27:21;;;;;;;251.15;159.27;;;30.10;99.90;;;;;;5054860;28;20033;-64
2022/04/04 11:29:48;;;;;;;574.13;399.98;;;30.10;99.90;;;;;;5056384;28;20036;-65
2022/04/04 11:32:16;;;;;;;489.83;331.10;;;30.10;99.90;;;;;;5056149;28;20029;-65
2022/04/04 11:34:44;;;;;;;420.80;301.80;;;30.10;99.90;;;;;;5055732;28;20109;-65
2022/04/04 11:37:17;;;;;;;431.05;314.73;;;30.00;99.90;;;;;;5055766;28;20510;-65
2022/04/04 11:39:46;;;;;;;491.25;375.05;;;30.00;99.90;;;;;;5056356;28;20372;-65
2022/04/04 11:42:14;;;;;;;969.17;719.53;;;30.00;99.90;;;;;;5054200;28;20017;-65
2022/04/04 11:44:50;;;;;;;370.77;274.02;;;30.00;99.90;;;;;;5052120;28;20033;-65
2022/04/04 11:47:18;;;;;;;177.07;129.98;;;29.90;99.90;;;;;;5056337;28;20064;-64
2022/04/04 11:49:46;;;;;;;316.95;228.95;;;29.90;99.90;;;;;;5056310;28;20033;-66
2022/04/04 11:52:17;;;;;;;176.00;123.72;;;29.80;99.90;;;;;;5055725;28;20115;-66
2022/04/04 11:54:49;;;;;;;159.33;119.83;;;29.90;99.90;;;;;;5055889;28;20074;-66
2022/04/04 11:57:16;;;;;;;148.15;107.32;;;29.90;99.90;;;;;;5054682;28;20025;-65
2022/04/04 11:59:45;;;;;;;119.82;79.82;;;29.90;99.90;;;;;;5052584;28;20033;-67
2022/04/04 12:02:13;;;;;;;127.40;80.70;;;29.80;99.90;;;;;;5053865;28;20107;-67
2022/04/04 12:04:42;;;;;;;131.65;81.43;;;29.90;99.90;;;;;;5048270;28;20108;-67
2022/04/04 12:07:10;;;;;;;179.88;107.28;;;29.90;99.90;;;;;;5054920;28;20625;-66
2022/04/04 12:09:39;;;;;;;201.52;113.25;;;29.90;99.90;;;;;;5050495;28;20063;-65
2022/04/04 12:12:08;;;;;;;170.63;97.63;;;29.90;99.90;;;;;;5054959;28;20028;-65
2022/04/04 12:14:39;;;;;;;159.32;89.13;;;29.90;99.90;;;;;;5053637;28;20031;-65
2022/04/04 12:17:07;;;;;;;119.93;67.95;;;29.90;99.90;;;;;;5048994;28;20041;-65
2022/04/04 12:19:45;;;;;;;139.88;75.05;;;29.90;99.90;;;;;;5054062;28;20100;-66
2022/04/04 12:25:03;;;;;;;218.80;139.32;;;29.70;99.90;;;;;;5051921;28;20108;-65
2022/04/04 12:27:30;;;;;;;217.52;138.25;;;29.60;99.90;;;;;;5053227;28;20029;-65
2022/04/04 12:29:59;;;;;;;167.25;106.50;;;29.40;99.90;;;;;;5053049;28;20108;-66
2022/04/04 12:32:27;;;;;;;107.88;73.57;;;29.30;99.90;;;;;;5053331;28;20025;-65
2022/04/04 12:34:57;;;;;;;86.60;60.63;;;29.30;99.90;;;;;;5053723;28;20083;-65
2022/04/04 12:37:34;;;;;;;84.53;62.83;;;29.20;99.90;;;;;;5052130;28;20021;-64
2022/04/04 12:40:22;;;;;;;76.57;57.65;;;29.20;99.90;;;;;;5050658;28;20075;-66